Time;durP1;ratioP1;P1;durP2;ratioP2;P2;SDS_P1;SDS_P2;PMS_P1;PMS_P2;Temp;Humidity;BMP_temperature;BMP_pressure;BME280_temperature;BME280_humidity;BME280_pressure;Samples;Min_cycle;Max_cycle;Signal;HPM_P1;HPM_P2
2023/06/19 00:01:59;;;;;;;6.63;4.78;;;;;;;18.27;88.81;94926.44;5014324;28;20164;-84
2023/06/19 00:04:26;;;;;;;9.75;4.50;;;;;;;18.25;88.32;94925.09;5014383;28;20176;-84
2023/06/19 00:06:52;;;;;;;10.32;4.15;;;;;;;18.16;88.09;94937.28;5014334;28;20173;-84
2023/06/19 00:09:18;;;;;;;8.35;4.22;;;;;;;18.06;88.43;94930.84;5013007;28;20200;-84
2023/06/19 00:11:43;;;;;;;7.60;5.13;;;;;;;18.00;88.06;94923.84;5014317;28;20160;-84
2023/06/19 00:14:09;;;;;;;5.43;4.20;;;;;;;17.68;88.31;94881.25;5014108;28;20263;-84
2023/06/19 00:16:34;;;;;;;5.68;4.15;;;;;;;18.04;88.37;94924.13;5014015;28;20175;-84
2023/06/19 00:19:00;;;;;;;7.67;4.57;;;;;;;17.92;88.24;94920.84;5013336;28;20993;-84
2023/06/19 00:21:25;;;;;;;7.00;3.70;;;;;;;17.61;87.90;94885.97;5013988;28;21374;-83
2023/06/19 00:23:52;;;;;;;7.00;4.67;;;;;;;17.55;88.31;94875.53;5013502;28;20410;-84
2023/06/19 00:26:17;;;;;;;5.60;4.00;;;;;;;17.73;89.09;94915.09;5012985;28;20425;-83
2023/06/19 00:28:45;;;;;;;6.53;3.83;;;;;;;17.41;87.83;94884.97;5013129;28;20808;-84
2023/06/19 00:31:13;;;;;;;8.15;3.90;;;;;;;17.50;88.52;94902.09;5014174;28;20183;-84
2023/06/19 00:33:39;;;;;;;4.90;3.50;;;;;;;17.59;88.21;94917.34;5013839;28;20184;-84
2023/06/19 00:36:11;;;;;;;5.28;4.00;;;;;;;17.55;88.48;94899.47;5013270;28;20444;-83
2023/06/19 00:38:38;;;;;;;5.68;3.70;;;;;;;17.58;88.14;94881.13;5011460;28;20565;-83
2023/06/19 00:41:05;;;;;;;4.47;3.58;;;;;;;17.78;88.08;94909.00;5012387;28;20176;-84
2023/06/19 00:43:30;;;;;;;8.38;3.70;;;;;;;17.91;88.43;94911.25;5011017;28;20169;-83
2023/06/19 00:46:01;;;;;;;5.78;3.53;;;;;;;17.94;88.60;94895.56;5012363;28;20857;-84
2023/06/19 00:48:27;;;;;;;6.03;3.60;;;;;;;17.81;88.24;94868.56;5012421;28;20645;-84
2023/06/19 00:50:53;;;;;;;4.90;3.40;;;;;;;17.98;88.04;94896.66;5011990;28;20645;-84
2023/06/19 00:53:19;;;;;;;4.78;3.70;;;;;;;18.06;87.45;94903.38;5028798;28;20200;-84
2023/06/19 00:55:47;;;;;;;4.95;3.38;;;;;;;17.99;87.72;94887.59;5012065;28;20168;-83
2023/06/19 00:58:13;;;;;;;5.55;3.22;;;;;;;18.02;87.40;94884.44;5013403;28;20188;-83
2023/06/19 01:00:38;;;;;;;6.13;3.70;;;;;;;17.73;86.97;94842.41;5028627;28;20184;-84
2023/06/19 01:03:04;;;;;;;8.02;3.40;;;;;;;17.75;87.13;94848.28;5013292;28;20169;-84
2023/06/19 01:05:30;;;;;;;6.85;3.00;;;;;;;17.94;87.13;94876.09;5013402;28;20663;-84
2023/06/19 01:08:49;;;;;;;4.95;3.63;;;;;;;17.86;87.23;94874.72;5013122;28;20177;-84
2023/06/19 01:11:23;;;;;;;12.50;3.70;;;;;;;17.75;87.40;94870.38;4970815;28;20188;-84
2023/06/19 01:13:55;;;;;;;4.03;3.30;;;;;;;17.57;87.18;94874.19;5008007;28;20685;-84
2023/06/19 01:16:22;;;;;;;4.35;3.63;;;;;;;17.36;88.28;94845.81;5013390;28;20184;-84
2023/06/19 01:18:48;;;;;;;9.30;4.43;;;;;;;17.50;88.20;94872.81;5012895;28;20220;-84
2023/06/19 01:21:18;;;;;;;6.20;3.33;;;;;;;17.25;88.45;94838.78;5012873;28;20187;-84
2023/06/19 01:23:44;;;;;;;5.97;3.58;;;;;;;17.28;87.78;94855.06;5012161;28;20172;-83
2023/06/19 01:26:10;;;;;;;4.13;3.55;;;;;;;17.11;87.77;94827.75;5011641;28;20176;-84
2023/06/19 01:28:39;;;;;;;6.80;3.28;;;;;;;17.09;88.09;94831.72;5012842;28;20565;-84
2023/06/19 01:31:20;;;;;;;5.60;3.92;;;;;;;17.32;88.39;94866.00;5012752;28;20711;-84
2023/06/19 01:33:47;;;;;;;6.60;3.75;;;;;;;17.32;88.47;94868.66;5011793;28;20653;-84
2023/06/19 01:36:14;;;;;;;3.95;3.38;;;;;;;17.14;89.57;94853.84;5011323;28;20238;-84
2023/06/19 01:38:43;;;;;;;9.70;4.30;;;;;;;17.17;89.79;94869.31;5012402;28;20192;-84
2023/06/19 01:41:09;;;;;;;7.47;4.40;;;;;;;17.02;90.29;94865.69;5012507;28;20172;-84
2023/06/19 01:43:35;;;;;;;5.43;3.85;;;;;;;17.11;90.88;94891.59;5011152;28;20184;-84
2023/06/19 01:46:01;;;;;;;6.68;3.88;;;;;;;17.11;90.56;94896.94;5012546;28;20230;-84
2023/06/19 01:48:27;;;;;;;10.32;3.97;;;;;;;16.87;90.75;94853.03;5011263;28;20176;-84
2023/06/19 01:50:52;;;;;;;8.38;6.13;;;;;;;17.01;91.13;94888.03;5010755;28;20239;-83
2023/06/19 01:53:18;;;;;;;11.27;7.07;;;;;;;16.82;90.04;94855.63;5011019;28;20188;-84
2023/06/19 01:55:43;;;;;;;13.75;7.68;;;;;;;17.00;88.46;94889.06;5012284;28;20173;-84
2023/06/19 01:58:09;;;;;;;13.82;8.77;;;;;;;16.77;88.58;94863.56;5012075;28;20208;-84
2023/06/19 02:00:35;;;;;;;12.05;8.13;;;;;;;16.96;89.14;94897.53;5012149;28;20168;-83
2023/06/19 02:03:01;;;;;;;11.13;8.05;;;;;;;16.55;89.42;94836.97;5012016;28;20176;-83
2023/06/19 02:05:26;;;;;;;15.40;9.98;;;;;;;16.63;89.48;94862.31;5012176;28;20176;-83
2023/06/19 02:07:52;;;;;;;14.70;9.15;;;;;;;16.45;89.57;94845.59;5010861;28;20227;-83
2023/06/19 02:10:17;;;;;;;15.63;10.35;;;;;;;16.51;89.85;94865.91;5010992;28;20173;-84
2023/06/19 02:12:43;;;;;;;16.33;9.88;;;;;;;16.72;90.06;94904.19;5027325;28;20642;-84
2023/06/19 02:15:09;;;;;;;13.90;9.73;;;;;;;16.69;89.91;94904.66;5012107;28;20175;-84
2023/06/19 02:17:34;;;;;;;13.05;9.10;;;;;;;16.65;90.48;94903.56;5011922;28;20291;-84
2023/06/19 02:19:59;;;;;;;12.27;7.72;;;;;;;16.42;90.70;94866.56;5011637;28;20271;-83
2023/06/19 02:22:25;;;;;;;10.73;8.20;;;;;;;16.65;91.04;94908.88;5012072;28;20200;-84
2023/06/19 02:24:50;;;;;;;9.60;7.47;;;;;;;16.62;91.25;94909.38;5011949;28;20172;-84
2023/06/19 02:27:16;;;;;;;13.75;8.63;;;;;;;16.58;91.61;94908.22;5010748;28;20222;-84
2023/06/19 02:29:41;;;;;;;9.18;6.47;;;;;;;16.56;91.75;94907.66;5027071;28;20256;-84
2023/06/19 02:32:07;;;;;;;9.02;5.72;;;;;;;16.51;91.98;94912.94;5011913;28;20172;-84
2023/06/19 02:34:33;;;;;;;8.35;5.60;;;;;;;16.52;91.98;94912.66;5011858;28;20646;-84
2023/06/19 02:36:59;;;;;;;6.63;4.38;;;;;;;15.93;91.98;94829.25;5011729;28;20192;-84
2023/06/19 02:39:24;;;;;;;6.80;5.43;;;;;;;16.22;92.59;94883.84;5011777;28;20176;-84
2023/06/19 02:41:49;;;;;;;7.53;4.47;;;;;;;15.96;92.92;94867.78;5011826;28;20180;-83
2023/06/19 02:44:15;;;;;;;7.07;5.07;;;;;;;15.87;93.66;94878.03;5011514;28;20851;-84
2023/06/19 02:46:40;;;;;;;9.18;4.95;;;;;;;16.04;94.06;94902.72;5011525;28;20176;-82
2023/06/19 02:49:06;;;;;;;7.67;5.20;;;;;;;15.75;94.31;94877.28;5011272;28;20445;-84
2023/06/19 02:51:31;;;;;;;6.55;4.80;;;;;;;16.08;94.61;94922.44;5011762;28;20278;-84
2023/06/19 02:53:56;;;;;;;7.13;4.45;;;;;;;15.87;94.20;94874.56;5011830;28;20178;-85
2023/06/19 02:56:22;;;;;;;7.68;4.60;;;;;;;15.94;93.88;94885.81;5011759;28;20585;-85
2023/06/19 02:58:48;;;;;;;8.05;4.80;;;;;;;16.15;93.72;94915.09;5011852;28;20204;-85
2023/06/19 03:01:13;;;;;;;6.32;4.90;;;;;;;15.76;93.95;94858.47;5010366;28;20187;-85
2023/06/19 03:03:40;;;;;;;8.07;4.70;;;;;;;15.98;94.25;94898.38;5011645;28;20251;-85
2023/06/19 03:06:07;;;;;;;6.43;4.43;;;;;;;16.12;94.18;94920.06;5011758;28;20180;-84
2023/06/19 03:08:37;;;;;;;6.57;4.97;;;;;;;16.00;94.10;94912.19;5011702;28;20172;-84
2023/06/19 03:11:06;;;;;;;6.30;4.20;;;;;;;16.13;94.29;94927.81;5011642;28;20176;-84
2023/06/19 03:13:52;;;;;;;8.60;4.70;;;;;;;15.99;94.58;94893.88;5011536;28;20174;-84
2023/06/19 03:16:18;;;;;;;7.90;4.63;;;;;;;16.08;94.68;94918.97;5009072;28;20215;-84
2023/06/19 03:18:44;;;;;;;4.78;3.92;;;;;;;16.01;94.49;94905.84;5011483;28;20251;-84
2023/06/19 03:21:13;;;;;;;6.95;4.55;;;;;;;16.15;94.43;94923.06;5009062;28;20183;-84
2023/06/19 03:23:40;;;;;;;7.40;4.07;;;;;;;16.02;93.85;94888.06;5009893;28;20183;-83
2023/06/19 03:26:07;;;;;;;15.25;4.88;;;;;;;16.30;94.44;94917.16;5009965;28;20184;-82
2023/06/19 03:28:32;;;;;;;6.38;4.55;;;;;;;16.06;94.21;94876.72;5011306;28;20187;-82
2023/06/19 03:30:58;;;;;;;5.28;4.13;;;;;;;16.46;93.73;94912.84;5011525;28;20677;-83
2023/06/19 03:33:23;;;;;;;4.45;3.90;;;;;;;16.55;93.77;94914.84;5014646;28;20259;-87
2023/06/19 03:35:49;;;;;;;7.13;4.22;;;;;;;16.46;93.44;94900.38;5013886;28;20194;-83
2023/06/19 03:38:14;;;;;;;6.78;4.65;;;;;;;16.44;92.36;94896.34;5014893;28;20259;-84
2023/06/19 03:40:40;;;;;;;7.22;4.68;;;;;;;16.69;92.46;94919.84;5013505;28;20190;-84
2023/06/19 03:43:05;;;;;;;6.00;4.75;;;;;;;16.75;92.49;94914.34;5014878;28;20279;-83
2023/06/19 03:45:30;;;;;;;6.15;4.30;;;;;;;16.82;92.68;94911.47;5014072;28;20172;-82
2023/06/19 03:47:56;;;;;;;7.07;4.35;;;;;;;16.87;92.22;94901.69;5014798;28;20947;-83
2023/06/19 03:50:21;;;;;;;7.75;4.53;;;;;;;16.98;90.51;94902.63;5014449;28;20270;-84
2023/06/19 03:52:47;;;;;;;6.30;4.88;;;;;;;17.28;90.67;94929.56;5014969;28;20642;-83
2023/06/19 03:55:12;;;;;;;9.82;4.18;;;;;;;17.17;89.25;94895.91;5014758;28;20173;-78
2023/06/19 03:57:38;;;;;;;7.78;4.45;;;;;;;17.45;88.69;94913.50;5013902;28;20593;-80
2023/06/19 04:00:12;;;;;;;5.32;4.35;;;;;;;17.60;87.78;94926.94;5014671;28;20195;-82
2023/06/19 04:02:39;;;;;;;6.82;4.55;;;;;;;17.57;87.17;94905.34;5013491;28;20157;-84
2023/06/19 04:05:05;;;;;;;6.07;4.63;;;;;;;17.57;87.54;94889.38;5013149;28;20172;-85
2023/06/19 04:07:31;;;;;;;5.90;4.20;;;;;;;17.82;85.81;94916.22;5014560;28;20180;-83
2023/06/19 04:09:58;;;;;;;6.93;4.22;;;;;;;18.00;84.09;94928.34;5014446;28;20165;-85
2023/06/19 04:12:24;;;;;;;6.60;4.13;;;;;;;17.92;85.33;94884.34;5014334;28;20660;-85
2023/06/19 04:14:49;;;;;;;7.85;4.75;;;;;;;18.48;85.01;94924.69;5013236;28;20263;-85
2023/06/19 04:17:15;;;;;;;6.18;4.18;;;;;;;18.40;82.46;94893.19;5014327;28;20283;-84
2023/06/19 04:19:40;;;;;;;6.05;3.72;;;;;;;18.70;82.69;94929.91;5014336;28;20235;-83
2023/06/19 04:22:06;;;;;;;10.45;4.22;;;;;;;18.73;81.91;94914.19;5013050;28;20184;-82
2023/06/19 04:24:32;;;;;;;4.68;4.10;;;;;;;18.42;81.32;94891.84;5014815;28;20643;-85
2023/06/19 04:26:57;;;;;;;8.40;4.53;;;;;;;18.58;81.76;94902.66;5014121;28;20224;-86
2023/06/19 04:29:23;;;;;;;6.45;4.95;;;;;;;18.83;81.55;94908.09;5013771;28;20691;-79
2023/06/19 04:31:49;;;;;;;5.40;4.32;;;;;;;19.19;81.03;94933.84;5014233;28;20173;-79
2023/06/19 04:34:16;;;;;;;6.13;3.75;;;;;;;19.53;81.29;94930.75;5014083;28;20255;-80
2023/06/19 04:36:41;;;;;;;3.75;3.30;;;;;;;19.67;79.44;94889.09;5013674;28;20179;-80
2023/06/19 04:39:07;;;;;;;8.30;4.15;;;;;;;20.24;77.27;94936.91;5013110;28;20200;-80
2023/06/19 04:41:32;;;;;;;3.50;3.17;;;;;;;20.51;77.49;94914.44;5013445;28;20182;-81
2023/06/19 04:43:58;;;;;;;5.80;3.78;;;;;;;20.75;75.24;94915.47;5013245;28;20180;-81
2023/06/19 04:46:23;;;;;;;6.18;3.40;;;;;;;21.02;75.66;94923.13;5029099;28;20180;-83
2023/06/19 04:48:51;;;;;;;6.32;3.95;;;;;;;21.30;72.70;94941.22;5012500;28;20279;-83
2023/06/19 04:51:20;;;;;;;3.70;3.00;;;;;;;21.46;72.44;94934.72;5013300;28;20905;-81
2023/06/19 04:53:47;;;;;;;5.65;3.47;;;;;;;21.76;71.09;94938.28;5013776;28;20169;-81
2023/06/19 04:56:12;;;;;;;3.80;2.80;;;;;;;22.06;69.24;94926.56;5013599;28;20183;-82
2023/06/19 04:58:45;;;;;;;5.38;3.38;;;;;;;22.25;68.40;94906.00;5013369;28;20196;-82
2023/06/19 05:01:11;;;;;;;4.47;3.10;;;;;;;22.59;66.95;94909.44;5011865;28;20216;-82
2023/06/19 05:03:36;;;;;;;4.78;2.92;;;;;;;23.11;66.64;94936.53;5013624;28;20176;-81
2023/06/19 05:06:02;;;;;;;3.08;2.70;;;;;;;23.32;64.72;94927.16;5013679;28;20168;-80
2023/06/19 05:08:27;;;;;;;7.22;2.70;;;;;;;23.81;63.56;94942.88;5013039;28;20219;-82
2023/06/19 05:10:53;;;;;;;3.05;2.75;;;;;;;24.12;62.29;94931.69;5012625;28;20164;-82
2023/06/19 05:13:19;;;;;;;6.13;2.80;;;;;;;24.28;62.92;94901.56;5012699;28;20168;-80
2023/06/19 05:15:44;;;;;;;8.65;3.60;;;;;;;24.77;59.64;94927.06;5012907;28;20164;-80
2023/06/19 05:18:09;;;;;;;5.72;4.00;;;;;;;24.94;59.02;94908.44;5012219;28;20290;-81
2023/06/19 05:20:35;;;;;;;6.93;4.10;;;;;;;25.37;58.11;94926.97;5012086;28;21746;-82
2023/06/19 05:23:00;;;;;;;5.70;3.00;;;;;;;25.67;58.70;94939.84;5012983;28;20226;-80
2023/06/19 05:25:27;;;;;;;4.45;3.00;;;;;;;25.65;58.50;94933.13;5013144;28;20275;-82
2023/06/19 05:27:52;;;;;;;4.55;3.22;;;;;;;25.46;58.99;94941.34;5012973;28;20254;-84
2023/06/19 05:30:18;;;;;;;4.97;2.60;;;;;;;25.11;58.50;94935.56;5012816;28;20300;-84
2023/06/19 05:32:43;;;;;;;6.35;3.50;;;;;;;24.72;60.36;94902.94;5013090;28;20183;-84
2023/06/19 05:35:09;;;;;;;5.97;2.95;;;;;;;24.72;59.45;94944.13;5028250;28;20172;-82
2023/06/19 05:37:34;;;;;;;6.43;3.00;;;;;;;24.42;60.68;94934.69;5013011;28;20255;-85
2023/06/19 05:40:00;;;;;;;3.45;2.60;;;;;;;24.21;60.78;94930.75;5012969;28;20180;-86
2023/06/19 05:42:26;;;;;;;4.13;3.05;;;;;;;24.05;62.56;94913.19;5027970;28;20642;-86
2023/06/19 05:44:51;;;;;;;6.05;3.50;;;;;;;24.26;62.29;94938.72;5012798;28;20637;-86
2023/06/19 05:47:19;;;;;;;4.22;3.08;;;;;;;24.42;61.73;94953.53;5028177;28;20172;-86
2023/06/19 05:49:47;;;;;;;4.35;3.20;;;;;;;24.46;61.37;94947.56;5011106;28;21047;-86
2023/06/19 05:52:12;;;;;;;4.63;3.78;;;;;;;24.29;62.59;94922.00;5012633;28;20306;-86
2023/06/19 05:54:37;;;;;;;4.63;2.95;;;;;;;24.60;62.53;94953.75;5011731;28;20169;-85
2023/06/19 05:57:03;;;;;;;4.25;2.60;;;;;;;24.53;62.51;94919.16;5012377;28;20246;-86
2023/06/19 05:59:28;;;;;;;6.90;3.35;;;;;;;24.65;61.20;94932.13;5012477;28;20160;-86
2023/06/19 06:01:56;;;;;;;5.03;3.15;;;;;;;23.93;59.20;94912.88;5012444;28;20176;-86
2023/06/19 06:04:22;;;;;;;4.47;3.13;;;;;;;23.93;61.04;94924.44;5012439;28;20175;-86
2023/06/19 06:06:47;;;;;;;6.03;3.30;;;;;;;23.95;60.82;94908.81;5012770;28;20160;-88
2023/06/19 06:09:13;;;;;;;7.57;3.28;;;;;;;23.91;61.33;94907.78;5011198;28;20188;-83
2023/06/19 06:11:38;;;;;;;5.82;3.08;;;;;;;24.44;62.21;94966.69;5011335;28;20209;-89
2023/06/19 06:14:04;;;;;;;3.20;2.88;;;;;;;24.45;61.08;94927.91;5012530;28;20236;-88
2023/06/19 06:16:29;;;;;;;3.60;3.17;;;;;;;24.66;58.56;94936.41;5012716;28;20254;-89
2023/06/19 06:18:55;;;;;;;7.72;2.88;;;;;;;24.70;61.81;94924.75;5012501;28;20195;-87
2023/06/19 06:21:20;;;;;;;5.68;3.20;;;;;;;25.21;59.67;94972.31;5010783;28;20302;-81
2023/06/19 06:23:47;;;;;;;6.28;2.75;;;;;;;25.11;59.10;94937.47;5012186;28;20179;-81
2023/06/19 06:26:14;;;;;;;4.75;2.70;;;;;;;25.56;59.67;94979.69;5012259;28;20177;-82
2023/06/19 06:28:41;;;;;;;4.43;2.75;;;;;;;25.42;58.05;94934.97;5012036;28;20219;-83
2023/06/19 06:31:06;;;;;;;3.95;3.17;;;;;;;25.78;58.49;94970.84;5012000;28;20306;-84
2023/06/19 06:33:32;;;;;;;3.03;2.75;;;;;;;25.59;57.02;94929.78;5010733;28;20252;-84
2023/06/19 06:35:58;;;;;;;5.50;3.53;;;;;;;26.10;56.76;94987.97;5011991;28;20696;-83
2023/06/19 06:38:23;;;;;;;3.15;2.80;;;;;;;26.26;56.56;94981.94;5010587;28;20192;-84
2023/06/19 06:40:49;;;;;;;4.78;2.90;;;;;;;26.35;56.25;94983.91;5011752;28;20663;-82
2023/06/19 06:43:14;;;;;;;4.60;3.05;;;;;;;26.17;55.41;94969.44;5011932;28;20165;-84
2023/06/19 06:45:42;;;;;;;3.13;2.83;;;;;;;26.30;55.09;94972.13;5011563;28;20180;-82
2023/06/19 06:48:08;;;;;;;6.43;2.85;;;;;;;26.54;56.39;94981.81;5011736;28;20188;-82
2023/06/19 06:50:33;;;;;;;4.30;2.97;;;;;;;26.66;54.64;94984.75;5011722;28;20224;-82
2023/06/19 06:53:00;;;;;;;7.25;2.88;;;;;;;26.82;54.31;94977.84;5011815;28;20175;-80
2023/06/19 06:55:25;;;;;;;3.83;2.78;;;;;;;26.61;53.29;94930.88;5011956;28;20169;-82
2023/06/19 06:57:51;;;;;;;3.83;2.85;;;;;;;26.64;53.65;94925.63;5011817;28;20196;-82
2023/06/19 07:00:18;;;;;;;4.05;2.45;;;;;;;27.12;56.10;94980.88;5011586;28;20582;-82
2023/06/19 07:02:44;;;;;;;4.15;2.85;;;;;;;27.14;54.80;94963.25;5011718;28;20164;-81
2023/06/19 07:05:10;;;;;;;3.42;3.00;;;;;;;27.35;52.61;94947.25;5011176;28;20179;-83
2023/06/19 07:07:36;;;;;;;3.35;2.42;;;;;;;27.56;52.38;94961.00;5013897;28;20188;-83
2023/06/19 07:10:01;;;;;;;5.75;3.33;;;;;;;27.76;51.48;94982.06;5015461;28;20235;-83
2023/06/19 07:12:27;;;;;;;2.85;2.58;;;;;;;27.86;52.63;94979.03;5014784;28;20179;-83
2023/06/19 07:14:55;;;;;;;8.25;3.00;;;;;;;27.88;51.65;94979.53;5013464;28;20618;-83
2023/06/19 07:17:22;;;;;;;4.75;3.00;;;;;;;27.67;50.86;94949.59;5013350;28;20275;-83
2023/06/19 07:19:48;;;;;;;3.05;2.72;;;;;;;27.74;52.42;94954.53;5013477;28;20183;-83
2023/06/19 07:22:14;;;;;;;2.90;2.70;;;;;;;27.97;51.83;94983.03;5013302;28;20157;-83
2023/06/19 07:24:40;;;;;;;6.35;3.13;;;;;;;27.86;50.82;94970.91;5013417;28;20268;-83
2023/06/19 07:27:06;;;;;;;2.83;2.53;;;;;;;27.98;49.23;94984.63;5013230;28;20169;-83
2023/06/19 07:29:32;;;;;;;2.85;2.53;;;;;;;27.82;49.48;94964.56;5013171;28;20175;-83
2023/06/19 07:31:58;;;;;;;4.50;2.80;;;;;;;27.97;48.47;94988.47;5011421;28;20173;-83
2023/06/19 07:34:23;;;;;;;4.80;2.50;;;;;;;27.98;49.18;94981.94;5011506;28;20508;-83
2023/06/19 07:36:50;;;;;;;5.32;2.58;;;;;;;27.74;48.92;94955.31;5011730;28;20172;-83
2023/06/19 07:39:15;;;;;;;5.43;2.78;;;;;;;27.79;51.79;94952.44;5012369;28;20224;-81
2023/06/19 07:41:41;;;;;;;3.85;2.72;;;;;;;28.07;50.10;94990.84;5012083;28;20653;-83
2023/06/19 07:44:06;;;;;;;5.07;3.03;;;;;;;28.10;52.36;94976.69;5010963;28;20572;-83
2023/06/19 07:46:32;;;;;;;4.03;2.67;;;;;;;28.11;49.17;94970.13;5012828;28;20200;-83
2023/06/19 07:48:57;;;;;;;5.72;3.10;;;;;;;28.07;49.64;94979.22;5012849;28;20263;-83
2023/06/19 07:51:23;;;;;;;3.45;2.65;;;;;;;27.96;50.88;94965.19;5011432;28;20713;-83
2023/06/19 07:53:48;;;;;;;3.92;2.60;;;;;;;28.27;51.12;94991.38;5012599;28;20646;-83
2023/06/19 07:56:13;;;;;;;3.08;2.40;;;;;;;28.28;49.82;94993.75;5012723;28;20645;-83
2023/06/19 07:58:39;;;;;;;2.83;2.50;;;;;;;28.04;46.36;94950.06;5012512;28;20674;-83
2023/06/19 08:01:04;;;;;;;3.78;2.72;;;;;;;28.01;47.08;94929.88;5012700;28;20179;-83
2023/06/19 08:03:30;;;;;;;3.05;2.13;;;;;;;28.41;47.89;94989.28;5012526;28;20168;-83
2023/06/19 08:05:56;;;;;;;3.70;2.60;;;;;;;28.00;47.95;94944.50;5012587;28;20256;-83
2023/06/19 08:08:22;;;;;;;5.63;2.80;;;;;;;27.58;50.04;94931.75;5012542;28;20187;-83
2023/06/19 08:10:48;;;;;;;4.20;2.60;;;;;;;28.02;49.30;94976.69;5012701;28;20671;-83
2023/06/19 08:13:13;;;;;;;4.47;3.22;;;;;;;28.10;48.89;94981.31;5012431;28;20173;-83
2023/06/19 08:15:38;;;;;;;2.97;2.50;;;;;;;27.82;47.73;94971.88;5010993;28;20172;-83
2023/06/19 08:18:04;;;;;;;5.18;2.42;;;;;;;28.07;47.45;94984.63;5011289;28;20189;-83
2023/06/19 08:20:29;;;;;;;4.88;2.80;;;;;;;28.23;47.67;94987.69;5012095;28;20712;-83
2023/06/19 08:22:56;;;;;;;3.40;2.50;;;;;;;28.22;45.37;94980.69;5012087;28;20173;-83
2023/06/19 08:25:21;;;;;;;2.63;2.42;;;;;;;28.13;46.08;94983.38;5010962;28;20263;-82
2023/06/19 08:27:47;;;;;;;3.72;3.33;;;;;;;28.37;48.93;94982.91;5012108;28;20303;-83
2023/06/19 08:30:12;;;;;;;5.00;3.00;;;;;;;28.29;46.57;94932.25;5012738;28;20184;-83
2023/06/19 08:32:38;;;;;;;3.67;2.75;;;;;;;28.64;47.73;94985.25;5012206;28;20182;-83
2023/06/19 08:35:03;;;;;;;2.90;2.58;;;;;;;28.62;49.60;94984.81;5012106;28;20259;-82
2023/06/19 08:37:29;;;;;;;4.70;2.90;;;;;;;28.13;47.67;94937.34;5010794;28;20689;-83
2023/06/19 08:39:56;;;;;;;3.00;2.70;;;;;;;28.61;47.27;94985.13;5011912;28;20259;-83
2023/06/19 08:42:22;;;;;;;2.92;2.67;;;;;;;28.40;46.27;94971.44;5011948;28;20180;-83
2023/06/19 08:44:48;;;;;;;3.85;2.80;;;;;;;28.47;46.72;94985.28;5011892;28;20172;-83
2023/06/19 08:47:14;;;;;;;2.88;2.67;;;;;;;28.36;46.84;94975.91;5011960;28;20684;-82
2023/06/19 08:49:39;;;;;;;5.25;3.22;;;;;;;27.98;46.05;94976.50;5011761;28;20184;-82
2023/06/19 08:52:06;;;;;;;3.00;2.58;;;;;;;27.64;44.95;94952.91;5011631;28;20220;-81
2023/06/19 08:54:31;;;;;;;5.47;2.75;;;;;;;27.76;51.06;94973.97;5012232;28;20173;-82
2023/06/19 08:57:03;;;;;;;5.25;2.72;;;;;;;27.67;49.21;94952.28;5011264;28;20694;-82
2023/06/19 08:59:31;;;;;;;3.90;2.72;;;;;;;27.55;47.16;94968.34;5011492;28;20184;-82
2023/06/19 09:01:57;;;;;;;4.10;2.90;;;;;;;27.53;50.57;94975.94;5011223;28;20238;-83
2023/06/19 09:04:26;;;;;;;2.38;2.17;;;;;;;27.63;48.63;94980.28;5011435;28;20357;-82
2023/06/19 09:07:02;;;;;;;5.13;2.50;;;;;;;27.77;49.77;94986.34;5011241;28;20279;-83
2023/06/19 09:09:28;;;;;;;4.90;2.70;;;;;;;27.77;49.73;94953.88;5011390;28;20176;-83
2023/06/19 09:12:01;;;;;;;4.18;2.90;;;;;;;28.01;46.37;94980.50;5011144;28;20242;-83
2023/06/19 09:14:35;;;;;;;6.10;2.65;;;;;;;28.04;48.93;94975.22;5011373;28;20682;-82
2023/06/19 09:17:02;;;;;;;4.22;2.75;;;;;;;28.12;49.61;94970.94;5011036;28;20177;-83
2023/06/19 09:19:27;;;;;;;6.75;2.95;;;;;;;28.20;46.41;94977.50;5011033;28;20183;-82
2023/06/19 09:21:53;;;;;;;7.45;3.03;;;;;;;27.77;46.82;94951.16;5013031;28;20168;-83
2023/06/19 09:24:19;;;;;;;2.38;2.17;;;;;;;28.03;48.28;94987.19;5011889;28;20183;-83
2023/06/19 09:26:44;;;;;;;11.00;3.20;;;;;;;28.08;45.65;94981.63;5011288;28;20180;-82
2023/06/19 09:29:19;;;;;;;5.15;3.08;;;;;;;27.55;45.87;94945.91;5009887;28;20180;-82
2023/06/19 09:31:44;;;;;;;3.95;2.50;;;;;;;27.38;48.79;94938.50;5010868;28;20186;-83
2023/06/19 09:34:10;;;;;;;5.72;2.63;;;;;;;27.66;46.33;94966.94;5010572;28;20657;-83
2023/06/19 09:36:35;;;;;;;3.00;2.70;;;;;;;27.52;45.05;94943.78;5008226;28;20234;-83
2023/06/19 09:39:04;;;;;;;4.40;2.70;;;;;;;27.38;44.54;94962.84;5010923;28;20189;-82
2023/06/19 09:41:31;;;;;;;4.10;2.67;;;;;;;27.49;49.27;94974.97;5008373;28;20655;-82
2023/06/19 09:43:59;;;;;;;6.18;2.90;;;;;;;27.50;46.25;94975.78;5008824;28;20181;-83
2023/06/19 09:46:29;;;;;;;3.35;2.60;;;;;;;27.51;50.36;94972.72;5010662;28;20639;-82
2023/06/19 09:48:58;;;;;;;3.08;2.50;;;;;;;27.54;48.31;94965.94;5010633;28;20187;-83
2023/06/19 09:51:33;;;;;;;5.28;2.75;;;;;;;27.51;47.32;94948.38;5010239;28;20706;-82
2023/06/19 09:54:00;;;;;;;6.90;3.50;;;;;;;27.25;48.06;94969.16;5010561;28;20175;-83
2023/06/19 09:56:27;;;;;;;3.53;3.10;;;;;;;27.20;49.92;94951.19;5010525;28;20302;-83
2023/06/19 09:58:56;;;;;;;4.68;2.97;;;;;;;26.87;45.83;94966.13;5010279;28;20200;-82
2023/06/19 10:01:23;;;;;;;3.45;2.50;;;;;;;26.80;50.29;94949.56;5010401;28;20191;-82
2023/06/19 10:03:48;;;;;;;3.35;2.80;;;;;;;26.68;51.87;94956.31;5010805;28;20199;-83
2023/06/19 10:06:16;;;;;;;3.05;2.72;;;;;;;26.77;50.01;94956.38;5010301;28;20626;-83
2023/06/19 10:08:44;;;;;;;4.45;2.88;;;;;;;26.68;49.38;94950.91;5010072;28;20176;-82
2023/06/19 10:11:12;;;;;;;4.57;2.78;;;;;;;26.56;52.13;94920.16;5010154;28;20177;-83
2023/06/19 10:13:41;;;;;;;6.47;3.00;;;;;;;26.90;51.63;94952.75;5010283;28;20558;-83
2023/06/19 10:16:08;;;;;;;2.95;2.67;;;;;;;26.63;50.59;94905.16;5010295;28;20661;-83
2023/06/19 10:18:46;;;;;;;5.68;2.75;;;;;;;26.89;47.70;94945.78;5010313;28;20604;-83
2023/06/19 10:21:18;;;;;;;5.18;3.05;;;;;;;26.66;50.51;94906.41;5010052;28;20172;-83
2023/06/19 10:23:55;;;;;;;4.95;2.78;;;;;;;26.94;50.11;94936.75;5010226;28;20181;-82
2023/06/19 10:26:28;;;;;;;3.00;2.70;;;;;;;26.92;52.29;94923.56;5009808;28;20707;-83
2023/06/19 10:28:54;;;;;;;3.20;2.85;;;;;;;26.81;48.23;94934.94;5010077;28;20173;-82
2023/06/19 10:31:19;;;;;;;3.70;2.60;;;;;;;26.68;47.22;94931.22;5012221;28;20175;-83
2023/06/19 10:33:45;;;;;;;6.75;2.95;;;;;;;26.52;49.33;94938.13;5027176;28;21720;-83
2023/06/19 10:36:16;;;;;;;3.13;2.50;;;;;;;26.24;52.14;94913.94;5010796;28;20614;-83
2023/06/19 10:38:46;;;;;;;3.60;2.75;;;;;;;26.39;50.00;94920.88;5012091;28;20757;-84
2023/06/19 10:41:20;;;;;;;4.43;2.70;;;;;;;26.50;52.00;94937.63;5011626;28;20545;-81
2023/06/19 10:44:12;;;;;;;5.43;2.85;;;;;;;26.61;49.63;94931.66;5010857;28;20268;-80
2023/06/19 10:46:38;;;;;;;3.47;2.80;;;;;;;26.60;50.03;94932.75;5009843;28;20254;-79
2023/06/19 10:49:07;;;;;;;3.50;2.95;;;;;;;26.60;52.72;94921.97;5010446;28;20200;-81
2023/06/19 10:51:41;;;;;;;3.00;2.60;;;;;;;26.49;48.15;94931.44;5011094;28;20226;-80
2023/06/19 10:54:07;;;;;;;3.03;2.75;;;;;;;26.50;49.10;94927.63;5009096;28;20251;-81
2023/06/19 10:56:33;;;;;;;3.83;3.10;;;;;;;26.46;49.80;94932.06;5011161;28;20223;-80
2023/06/19 10:58:58;;;;;;;4.57;4.15;;;;;;;26.28;50.87;94924.94;5010997;28;20200;-79
2023/06/19 11:01:35;;;;;;;8.68;3.63;;;;;;;26.28;52.42;94930.34;5010617;28;20555;-78
2023/06/19 11:04:03;;;;;;;7.03;3.10;;;;;;;26.28;53.19;94903.34;5010300;28;20278;-79
2023/06/19 11:06:28;;;;;;;4.10;3.00;;;;;;;26.57;51.75;94924.47;5011153;28;20445;-79
2023/06/19 11:08:54;;;;;;;3.28;2.85;;;;;;;26.59;51.45;94919.56;5010314;28;20614;-79
2023/06/19 11:11:20;;;;;;;5.07;2.90;;;;;;;26.72;52.87;94926.00;5010605;28;20180;-80
2023/06/19 11:13:45;;;;;;;3.58;3.28;;;;;;;26.81;52.97;94916.78;5010918;28;20257;-79
2023/06/19 11:16:11;;;;;;;5.28;2.67;;;;;;;26.94;54.74;94912.44;5010648;28;20184;-79
2023/06/19 11:18:36;;;;;;;3.92;3.28;;;;;;;26.97;53.40;94901.03;5011000;28;20200;-80
2023/06/19 11:21:02;;;;;;;4.55;2.97;;;;;;;27.04;53.64;94893.25;5010965;28;20168;-84
2023/06/19 11:23:30;;;;;;;5.65;2.85;;;;;;;27.08;51.80;94891.50;5010327;28;20179;-84
2023/06/19 11:26:03;;;;;;;4.15;3.15;;;;;;;27.13;50.71;94913.00;5008904;28;20185;-87
2023/06/19 11:28:29;;;;;;;5.82;3.55;;;;;;;26.96;50.73;94900.22;5010179;28;20172;-85
2023/06/19 11:30:59;;;;;;;8.35;3.05;;;;;;;26.75;51.10;94906.44;5010464;28;20223;-85